Time;durP1;ratioP1;P1;durP2;ratioP2;P2;SDS_P1;SDS_P2;PMS_P1;PMS_P2;Temp;Humidity;BMP_temperature;BMP_pressure;BME280_temperature;BME280_humidity;BME280_pressure;Samples;Min_cycle;Max_cycle;Signal;HPM_P1;HPM_P2
2023/03/23 17:53:58;;;;;;;11.48;7.07;;;12.80;99.90;;;;;;5107375;27;20335;-60
2023/03/23 17:56:24;;;;;;;13.43;8.77;;;12.70;99.90;;;;;;5107650;28;20468;-60
2023/03/23 17:58:49;;;;;;;17.10;12.93;;;12.70;99.90;;;;;;5108607;28;20437;-60
2023/03/23 18:01:15;;;;;;;22.75;16.48;;;12.70;99.90;;;;;;5106576;28;20317;-60
2023/03/23 18:03:41;;;;;;;25.45;17.38;;;12.80;99.90;;;;;;5108401;28;20357;-61
2023/03/23 18:06:08;;;;;;;19.58;15.57;;;12.80;99.90;;;;;;5108351;28;20016;-60
2023/03/23 18:08:34;;;;;;;22.45;16.20;;;12.80;99.90;;;;;;5106658;28;20062;-60
2023/03/23 18:11:00;;;;;;;19.67;15.60;;;12.80;99.90;;;;;;5106056;28;20023;-61
2023/03/23 18:13:28;;;;;;;14.10;10.38;;;12.80;99.90;;;;;;5100210;28;20076;-60
2023/03/23 18:15:55;;;;;;;15.63;11.02;;;12.80;99.90;;;;;;5102556;28;20036;-60
2023/03/23 18:18:21;;;;;;;24.75;16.65;;;12.80;99.90;;;;;;5085531;28;20024;-61
2023/03/23 18:20:47;;;;;;;22.98;15.38;;;12.90;99.90;;;;;;5083981;28;20020;-61
2023/03/23 18:23:13;;;;;;;26.05;16.38;;;13.00;99.90;;;;;;5084416;28;20035;-60
2023/03/23 18:25:39;;;;;;;22.73;15.45;;;13.00;99.90;;;;;;5092030;28;20079;-61
2023/03/23 18:28:05;;;;;;;25.00;15.10;;;13.00;99.90;;;;;;5105452;28;20370;-61
2023/03/23 18:30:32;;;;;;;22.92;15.93;;;13.00;99.90;;;;;;5106668;28;20457;-60
2023/03/23 18:32:58;;;;;;;19.45;13.60;;;13.00;99.90;;;;;;5104431;28;20182;-60
2023/03/23 18:35:24;;;;;;;18.75;13.10;;;13.00;99.90;;;;;;5104867;28;20095;-61
2023/03/23 18:37:50;;;;;;;16.60;11.27;;;13.00;99.90;;;;;;5090024;28;20672;-61
2023/03/23 18:40:16;;;;;;;20.90;12.88;;;13.10;99.90;;;;;;5085649;28;20028;-61
2023/03/23 18:42:43;;;;;;;20.35;12.73;;;13.10;99.90;;;;;;5088253;28;20498;-61
2023/03/23 18:45:10;;;;;;;13.82;8.48;;;13.10;99.90;;;;;;5105644;28;20120;-60
2023/03/23 18:47:37;;;;;;;12.45;6.00;;;13.10;99.90;;;;;;5105839;28;20526;-62
2023/03/23 18:50:05;;;;;;;13.73;6.70;;;13.20;99.90;;;;;;5105390;28;20031;-61
2023/03/23 18:52:31;;;;;;;11.80;5.32;;;13.20;99.90;;;;;;5104185;28;20139;-61
2023/03/23 18:54:57;;;;;;;7.72;3.88;;;13.20;99.90;;;;;;5105703;28;20023;-60
2023/03/23 18:57:23;;;;;;;8.75;5.28;;;13.20;99.90;;;;;;5105224;28;20024;-62
2023/03/23 18:59:50;;;;;;;9.23;4.45;;;13.30;99.90;;;;;;5104337;28;20112;-60
2023/03/23 19:02:17;;;;;;;10.20;5.70;;;13.30;99.90;;;;;;5105856;28;20028;-62
2023/03/23 19:04:47;;;;;;;12.95;7.82;;;13.30;99.90;;;;;;5094921;28;20078;-63
2023/03/23 19:07:14;;;;;;;24.65;16.70;;;13.30;99.90;;;;;;5091450;28;20051;-62
2023/03/23 19:09:40;;;;;;;23.30;16.65;;;13.30;99.90;;;;;;5080693;28;20020;-60
2023/03/23 19:12:07;;;;;;;22.38;15.77;;;13.30;99.90;;;;;;5083945;28;20055;-60
2023/03/23 19:14:34;;;;;;;24.77;15.43;;;13.20;99.90;;;;;;5072873;28;20021;-60
2023/03/23 19:17:00;;;;;;;23.88;15.20;;;13.30;99.90;;;;;;5081808;28;20030;-62
2023/03/23 19:19:26;;;;;;;27.23;17.58;;;13.30;99.90;;;;;;5091983;28;20032;-61
2023/03/23 19:21:51;;;;;;;27.50;18.58;;;13.30;99.90;;;;;;5090960;28;20020;-61
2023/03/23 19:24:17;;;;;;;28.10;19.25;;;13.30;99.90;;;;;;5091084;28;20028;-60
2023/03/23 19:26:44;;;;;;;21.73;14.90;;;13.30;99.90;;;;;;5090500;28;20024;-61
2023/03/23 19:29:13;;;;;;;25.40;18.70;;;13.20;99.90;;;;;;5091442;28;20020;-60
2023/03/23 19:31:39;;;;;;;28.80;17.30;;;13.30;99.90;;;;;;5090675;28;20024;-60
2023/03/23 19:34:07;;;;;;;24.52;17.33;;;13.30;99.90;;;;;;5073212;28;20048;-60
2023/03/23 19:36:34;;;;;;;30.90;20.65;;;13.20;99.90;;;;;;5070945;28;20036;-62
2023/03/23 19:39:00;;;;;;;35.30;20.60;;;13.30;99.90;;;;;;5070266;28;20028;-61
2023/03/23 19:41:26;;;;;;;32.28;21.02;;;13.30;99.90;;;;;;5070003;28;20373;-61
2023/03/23 19:43:53;;;;;;;33.35;20.60;;;13.30;99.90;;;;;;5069420;28;20539;-62
2023/03/23 19:46:18;;;;;;;30.73;19.83;;;13.30;99.90;;;;;;5086834;28;20028;-61
2023/03/23 19:48:45;;;;;;;30.02;19.27;;;13.30;99.90;;;;;;5091257;28;20035;-60
2023/03/23 19:51:11;;;;;;;28.80;17.58;;;13.30;99.90;;;;;;5089503;28;20077;-60
2023/03/23 19:53:37;;;;;;;23.38;15.75;;;13.30;99.90;;;;;;5090251;28;20106;-60
2023/03/23 19:56:03;;;;;;;22.27;14.95;;;13.30;99.90;;;;;;5089059;28;20020;-59
2023/03/23 19:58:29;;;;;;;31.25;20.38;;;13.20;99.90;;;;;;5091090;28;20078;-60
2023/03/23 20:00:55;;;;;;;28.65;18.20;;;13.20;99.90;;;;;;5088633;28;20023;-60
2023/03/23 20:03:21;;;;;;;30.17;19.60;;;13.20;99.90;;;;;;5091172;28;20020;-60
2023/03/23 20:05:47;;;;;;;30.50;20.65;;;13.20;99.90;;;;;;5090817;28;20058;-61
2023/03/23 20:08:13;;;;;;;30.48;18.55;;;13.20;99.90;;;;;;5089743;28;20012;-61
2023/03/23 20:10:42;;;;;;;32.25;20.40;;;13.20;99.90;;;;;;5090229;28;20044;-60
2023/03/23 20:13:10;;;;;;;27.50;17.90;;;13.20;99.90;;;;;;5082404;28;20032;-61
2023/03/23 20:15:37;;;;;;;36.00;23.35;;;13.20;99.90;;;;;;5069804;28;20033;-61
2023/03/23 20:18:03;;;;;;;31.52;20.38;;;13.20;99.90;;;;;;5070236;28;20117;-62
2023/03/23 20:20:28;;;;;;;26.90;18.25;;;13.10;99.90;;;;;;5069430;28;20469;-60
2023/03/23 20:22:54;;;;;;;24.83;16.42;;;13.10;99.90;;;;;;5076257;28;20024;-60
2023/03/23 20:25:20;;;;;;;23.38;15.80;;;13.10;99.90;;;;;;5090703;28;20690;-60
2023/03/23 20:27:45;;;;;;;26.10;16.40;;;13.10;99.90;;;;;;5049058;28;20543;-60
2023/03/23 20:30:12;;;;;;;20.13;12.68;;;13.20;99.90;;;;;;5050252;28;20025;-60
2023/03/23 20:32:39;;;;;;;15.50;10.98;;;13.20;99.90;;;;;;5049478;28;20117;-60
2023/03/23 20:35:08;;;;;;;17.42;11.80;;;13.20;99.90;;;;;;5079407;28;20033;-61
2023/03/23 20:37:37;;;;;;;11.63;7.93;;;13.20;99.90;;;;;;5088864;28;20490;-61
2023/03/23 20:40:15;;;;;;;12.15;5.80;;;13.20;99.90;;;;;;5089913;28;20039;-61
2023/03/23 20:42:42;;;;;;;12.45;5.15;;;13.20;99.90;;;;;;5089511;28;20461;-61
2023/03/23 20:45:10;;;;;;;10.35;5.22;;;13.20;99.90;;;;;;5089873;28;20110;-60
2023/03/23 20:47:37;;;;;;;10.20;5.53;;;13.30;99.90;;;;;;5060885;28;20399;-63
2023/03/23 20:50:02;;;;;;;9.57;5.95;;;13.30;99.90;;;;;;5070897;28;20028;-60
